createdAt,value
2023-04-29T00:00:44.506Z,8.43
2023-04-29T00:03:11.319Z,10.95
2023-04-29T00:05:38.725Z,9.40
2023-04-29T00:08:05.990Z,9.45
2023-04-29T00:10:32.989Z,10.23
2023-04-29T00:12:59.968Z,10.20
2023-04-29T00:15:27.073Z,8.15
2023-04-29T00:17:53.922Z,7.40
2023-04-29T00:20:20.656Z,7.72
2023-04-29T00:22:47.613Z,9.25
2023-04-29T00:25:14.727Z,8.20
2023-04-29T00:27:41.827Z,10.63
2023-04-29T00:30:09.991Z,8.30
2023-04-29T00:32:36.830Z,9.57
2023-04-29T00:35:03.704Z,8.60
2023-04-29T00:37:30.478Z,7.18
2023-04-29T00:39:57.175Z,5.95
2023-04-29T00:42:25.064Z,5.20
2023-04-29T00:44:51.827Z,6.70
2023-04-29T00:47:18.863Z,6.43
2023-04-29T00:49:45.785Z,6.00
2023-04-29T00:52:14.760Z,6.10
2023-04-29T00:54:41.977Z,6.60
2023-04-29T00:57:08.962Z,6.22
2023-04-29T00:59:36.429Z,5.75
2023-04-29T01:02:04.165Z,6.75
2023-04-29T01:04:31.701Z,5.20
2023-04-29T01:07:49.136Z,6.90
2023-04-29T01:10:41.704Z,6.45
2023-04-29T01:13:46.249Z,6.28
2023-04-29T01:16:26.893Z,5.75
2023-04-29T01:18:59.173Z,5.35
2023-04-29T01:21:32.953Z,4.50
2023-04-29T01:23:59.677Z,5.65
2023-04-29T01:26:33.060Z,7.45
2023-04-29T01:29:53.538Z,6.63
2023-04-29T01:32:32.808Z,6.22
2023-04-29T01:35:30.300Z,5.55
2023-04-29T01:38:13.041Z,4.80
2023-04-29T01:40:59.256Z,7.10
2023-04-29T01:43:32.762Z,6.60
2023-04-29T01:46:10.019Z,5.97
2023-04-29T01:48:37.366Z,6.60
2023-04-29T01:51:06.363Z,6.70
2023-04-29T01:53:33.316Z,6.57
2023-04-29T01:56:00.661Z,7.38
2023-04-29T01:58:35.247Z,6.35
2023-04-29T02:01:25.378Z,5.80
2023-04-29T02:03:52.956Z,4.63
2023-04-29T02:06:20.055Z,5.50
2023-04-29T02:08:51.523Z,5.38
2023-04-29T02:11:18.418Z,9.75
2023-04-29T02:13:45.450Z,8.30
2023-04-29T02:16:15.463Z,7.10
2023-04-29T02:18:52.334Z,6.03
2023-04-29T02:21:20.636Z,6.30
2023-04-29T02:23:47.418Z,5.38
2023-04-29T02:26:15.369Z,6.00
2023-04-29T02:28:42.430Z,5.88
2023-04-29T02:31:09.215Z,5.40
2023-04-29T02:33:36.384Z,6.57
2023-04-29T02:36:03.498Z,5.80
2023-04-29T02:38:30.252Z,5.55
2023-04-29T02:40:57.134Z,4.90
2023-04-29T02:43:24.103Z,5.05
2023-04-29T02:45:50.957Z,8.07
2023-04-29T02:48:17.938Z,6.45
2023-04-29T02:50:44.653Z,6.82
2023-04-29T02:53:11.651Z,6.75
2023-04-29T02:55:38.593Z,7.38
2023-04-29T02:58:09.413Z,9.50
2023-04-29T03:00:36.236Z,8.55
2023-04-29T03:03:03.382Z,8.13
2023-04-29T03:05:30.301Z,8.90
2023-04-29T03:07:57.096Z,8.15
2023-04-29T03:10:24.309Z,8.95
2023-04-29T03:12:51.293Z,8.02
2023-04-29T03:15:18.119Z,8.52
2023-04-29T03:17:46.481Z,6.78
2023-04-29T03:20:13.922Z,6.50
2023-04-29T03:22:40.695Z,9.13
2023-04-29T03:25:08.073Z,7.60
2023-04-29T03:27:34.872Z,7.40
2023-04-29T03:30:02.262Z,6.95
2023-04-29T03:32:29.198Z,6.32
2023-04-29T03:34:56.829Z,6.50
2023-04-29T03:37:33.337Z,6.55
2023-04-29T03:40:16.835Z,6.35
2023-04-29T03:42:43.807Z,5.88
2023-04-29T03:45:14.229Z,7.00
2023-04-29T03:47:41.316Z,7.03
2023-04-29T03:50:08.496Z,5.40
2023-04-29T03:52:36.535Z,5.72
2023-04-29T03:55:08.908Z,5.93
2023-04-29T03:57:35.795Z,5.53
2023-04-29T04:00:03.197Z,8.82
2023-04-29T04:02:40.616Z,9.52
2023-04-29T04:05:10.834Z,8.93
2023-04-29T04:07:39.352Z,7.60
2023-04-29T04:10:35.499Z,5.30
2023-04-29T04:13:06.925Z,4.80
2023-04-29T04:15:33.649Z,6.82
2023-04-29T04:18:00.705Z,6.30
2023-04-29T04:20:27.512Z,7.97
2023-04-29T04:22:54.840Z,8.93
2023-04-29T04:25:25.489Z,7.90
2023-04-29T04:27:55.048Z,8.90
2023-04-29T04:30:39.955Z,7.80
2023-04-29T04:33:06.758Z,7.20
2023-04-29T04:35:34.572Z,8.05
2023-04-29T04:38:01.319Z,8.02
2023-04-29T04:40:28.134Z,9.13
2023-04-29T04:43:15.146Z,8.40
2023-04-29T04:45:42.127Z,7.00
2023-04-29T04:48:09.094Z,7.30
2023-04-29T04:50:38.714Z,6.70
2023-04-29T04:53:05.627Z,6.40
2023-04-29T04:55:43.616Z,7.68
2023-04-29T04:58:10.618Z,6.90
2023-04-29T05:00:38.919Z,6.10
2023-04-29T05:03:05.801Z,7.50
2023-04-29T05:05:33.704Z,6.10
2023-04-29T05:08:00.920Z,7.63
2023-04-29T05:10:37.968Z,6.85
2023-04-29T05:13:06.448Z,6.00
2023-04-29T05:15:35.384Z,5.43
2023-04-29T05:18:03.377Z,6.13
2023-04-29T05:20:30.925Z,7.00
2023-04-29T05:22:59.458Z,7.28
2023-04-29T05:25:26.971Z,9.60
2023-04-29T05:27:55.343Z,9.00
2023-04-29T05:30:23.016Z,8.82
2023-04-29T05:32:50.033Z,7.90
2023-04-29T05:35:18.863Z,9.18
2023-04-29T05:37:46.177Z,8.68
2023-04-29T05:40:31.765Z,9.88
2023-04-29T05:43:17.828Z,8.30
2023-04-29T05:45:47.288Z,8.80
2023-04-29T05:48:14.052Z,8.10
2023-04-29T05:50:41.605Z,9.65
2023-04-29T05:53:08.481Z,9.30
2023-04-29T05:55:36.107Z,8.73
2023-04-29T05:58:03.074Z,9.75
2023-04-29T06:00:30.086Z,9.30
2023-04-29T06:03:02.596Z,8.70
2023-04-29T06:05:30.001Z,11.73
2023-04-29T06:08:20.277Z,10.52
2023-04-29T06:10:52.858Z,9.73
2023-04-29T06:13:20.129Z,9.55
2023-04-29T06:15:47.110Z,8.50
2023-04-29T06:18:15.066Z,9.73
2023-04-29T06:20:42.886Z,8.88
2023-04-29T06:23:09.672Z,9.35
2023-04-29T06:25:37.210Z,9.35
2023-04-29T06:28:08.410Z,7.43
2023-04-29T06:30:36.631Z,6.82
2023-04-29T06:33:03.631Z,7.07
2023-04-29T06:35:30.518Z,7.50
2023-04-29T06:38:09.652Z,7.70
2023-04-29T06:40:45.606Z,8.57
2023-04-29T06:43:31.338Z,7.57
2023-04-29T06:49:06.741Z,5.50
2023-04-29T06:51:33.638Z,4.95
2023-04-29T06:54:00.518Z,5.43
2023-04-29T06:56:27.377Z,7.43
2023-04-29T06:58:54.245Z,6.20
2023-04-29T07:01:21.500Z,6.22
2023-04-29T07:03:50.235Z,5.63
2023-04-29T07:06:19.322Z,6.90
2023-04-29T07:08:46.088Z,5.35
2023-04-29T07:11:15.454Z,4.80
2023-04-29T07:13:42.206Z,4.95
2023-04-29T07:16:17.866Z,4.88
2023-04-29T07:18:44.671Z,4.25
2023-04-29T07:21:11.418Z,5.45
2023-04-29T07:23:38.259Z,4.80
2023-04-29T07:26:16.008Z,6.07
2023-04-29T07:28:45.733Z,5.47
2023-04-29T07:31:12.699Z,6.13
2023-04-29T07:33:39.808Z,5.22
2023-04-29T07:36:09.990Z,4.65
2023-04-29T07:38:37.061Z,3.90
2023-04-29T07:41:06.602Z,5.30
2023-04-29T07:43:34.071Z,4.13
2023-04-29T07:46:01.053Z,4.78
2023-04-29T07:48:27.790Z,3.20
2023-04-29T07:50:54.749Z,4.03
2023-04-29T07:53:21.694Z,3.17
2023-04-29T07:55:50.759Z,3.72
2023-04-29T07:58:18.867Z,3.63
2023-04-29T08:00:47.206Z,3.47
2023-04-29T08:03:14.280Z,3.92
2023-04-29T08:05:42.597Z,2.90
2023-04-29T08:08:09.373Z,3.65
2023-04-29T08:10:40.943Z,3.03
2023-04-29T08:13:09.196Z,3.40
2023-04-29T08:15:36.202Z,2.80
2023-04-29T08:18:02.993Z,2.70
2023-04-29T08:20:30.371Z,2.60
2023-04-29T08:23:00.126Z,2.85
2023-04-29T08:25:30.163Z,2.63
2023-04-29T08:27:57.757Z,1.85
2023-04-29T08:30:24.588Z,2.15
2023-04-29T08:32:51.328Z,2.10
2023-04-29T08:35:18.194Z,2.63
2023-04-29T08:37:44.957Z,3.05
2023-04-29T08:40:13.293Z,3.38
2023-04-29T08:42:40.001Z,2.75
2023-04-29T08:45:07.212Z,2.33
2023-04-29T08:47:34.546Z,2.17
2023-04-29T08:50:05.982Z,2.80
2023-04-29T08:52:33.226Z,2.90
2023-04-29T08:55:02.372Z,3.17
2023-04-29T08:57:30.889Z,2.40
2023-04-29T09:00:00.147Z,3.00
2023-04-29T09:02:27.583Z,2.97
2023-04-29T09:05:08.393Z,3.28
2023-04-29T09:07:36.259Z,3.10
2023-04-29T09:10:05.024Z,3.47
2023-04-29T09:12:31.971Z,2.65
2023-04-29T09:14:59.963Z,3.05
2023-04-29T09:17:46.098Z,2.20
2023-04-29T09:20:22.144Z,3.05
2023-04-29T09:22:48.969Z,2.13
2023-04-29T09:25:16.187Z,2.05
2023-04-29T09:27:42.945Z,3.10
2023-04-29T09:30:10.877Z,2.17
2023-04-29T09:32:39.223Z,2.45
2023-04-29T09:35:22.085Z,2.33
2023-04-29T09:37:49.180Z,1.70
2023-04-29T09:40:30.416Z,1.85
2023-04-29T09:42:57.802Z,2.13
2023-04-29T09:45:42.376Z,1.60
2023-04-29T09:48:10.551Z,1.63
2023-04-29T09:50:38.530Z,1.50
2023-04-29T09:53:08.958Z,1.63
2023-04-29T09:55:54.221Z,1.27
2023-04-29T09:58:33.926Z,1.50
2023-04-29T10:01:02.325Z,1.30
2023-04-29T10:03:33.603Z,1.75
2023-04-29T10:06:01.727Z,1.40
2023-04-29T10:08:32.249Z,1.50
2023-04-29T10:11:05.763Z,1.58
2023-04-29T10:13:35.238Z,1.67
2023-04-29T10:16:12.427Z,1.33
2023-04-29T10:18:41.846Z,2.42
2023-04-29T10:21:12.197Z,1.50
2023-04-29T10:23:41.962Z,1.20
2023-04-29T10:26:12.415Z,1.15
2023-04-29T10:28:43.441Z,1.17
2023-04-29T10:31:11.017Z,0.82
2023-04-29T10:33:40.419Z,0.80
2023-04-29T10:36:09.330Z,0.70
2023-04-29T10:38:47.955Z,0.60
2023-04-29T10:41:25.488Z,0.60
2023-04-29T10:43:55.881Z,0.80
2023-04-29T10:46:24.432Z,0.70
2023-04-29T10:48:57.210Z,0.80
2023-04-29T10:51:41.812Z,0.60
2023-04-29T10:54:16.288Z,1.23
2023-04-29T10:56:47.700Z,0.80
2023-04-29T10:59:16.126Z,1.95
2023-04-29T11:01:46.245Z,0.90
2023-04-29T11:04:14.224Z,0.80
2023-04-29T11:06:44.237Z,0.85
2023-04-29T11:09:18.976Z,0.77
2023-04-29T11:12:03.511Z,1.02
2023-04-29T11:14:41.032Z,1.10
2023-04-29T11:17:13.719Z,1.60
2023-04-29T11:19:44.899Z,1.13
2023-04-29T11:22:17.705Z,0.90
2023-04-29T11:25:09.036Z,1.35
2023-04-29T11:27:38.766Z,1.73
2023-04-29T11:30:07.720Z,1.10
2023-04-29T11:32:37.383Z,1.98
2023-04-29T11:35:18.061Z,0.70
2023-04-29T11:37:46.891Z,0.90
2023-04-29T11:40:14.700Z,1.05
2023-04-29T11:42:49.180Z,1.10
2023-04-29T11:45:18.376Z,0.70
2023-04-29T11:47:46.880Z,1.27
2023-04-29T11:50:16.969Z,0.63
2023-04-29T11:52:44.790Z,0.75
2023-04-29T11:55:12.166Z,0.60
2023-04-29T11:57:40.203Z,0.60
2023-04-29T12:00:12.824Z,0.57
2023-04-29T12:02:43.577Z,0.77
2023-04-29T12:05:12.904Z,0.57
2023-04-29T12:07:40.520Z,0.70
2023-04-29T12:10:11.720Z,0.70
2023-04-29T12:12:41.062Z,0.50
2023-04-29T12:15:10.072Z,0.60
2023-04-29T12:17:38.040Z,0.60
2023-04-29T12:20:06.134Z,1.05
2023-04-29T12:22:33.131Z,0.60
2023-04-29T12:24:59.849Z,0.40
2023-04-29T12:27:27.044Z,0.40
2023-04-29T12:29:53.969Z,0.50
2023-04-29T12:32:25.236Z,0.50
2023-04-29T12:34:53.261Z,0.40
2023-04-29T12:37:23.497Z,0.40
2023-04-29T12:39:51.019Z,0.50
2023-04-29T12:42:18.236Z,0.45
2023-04-29T12:44:49.106Z,1.08
2023-04-29T12:47:16.923Z,0.65
2023-04-29T12:49:45.886Z,0.88
2023-04-29T12:52:13.262Z,0.50
2023-04-29T12:54:50.803Z,0.50
2023-04-29T12:57:17.695Z,0.80
2023-04-29T12:59:44.544Z,1.10
2023-04-29T13:02:12.361Z,0.70
2023-04-29T13:04:40.072Z,0.73
2023-04-29T13:07:07.212Z,0.90
2023-04-29T13:09:34.858Z,0.80
2023-04-29T13:12:02.810Z,0.88
2023-04-29T13:14:29.621Z,1.02
2023-04-29T13:16:57.633Z,0.52
2023-04-29T13:19:43.507Z,1.15
2023-04-29T13:22:11.545Z,0.75
2023-04-29T13:24:38.378Z,0.73
2023-04-29T13:27:05.792Z,0.70
2023-04-29T13:29:32.561Z,0.77
2023-04-29T13:31:59.414Z,0.70
2023-04-29T13:34:26.150Z,0.60
2023-04-29T13:36:52.903Z,0.60
2023-04-29T13:39:22.912Z,0.60
2023-04-29T13:41:50.054Z,0.57
2023-04-29T13:44:27.155Z,0.63
2023-04-29T13:46:57.827Z,1.02
2023-04-29T13:49:54.728Z,1.10
2023-04-29T13:53:10.018Z,0.90
2023-04-29T14:00:01.512Z,1.20
2023-04-29T14:02:39.250Z,0.85
2023-04-29T14:05:06.709Z,1.48
2023-04-29T14:07:33.545Z,1.65
2023-04-29T14:10:00.262Z,1.60
2023-04-29T14:12:26.951Z,1.60
2023-04-29T14:14:54.059Z,2.10
2023-04-29T14:17:20.950Z,2.03
2023-04-29T14:19:47.713Z,1.90
2023-04-29T14:22:14.534Z,1.83
2023-04-29T14:24:41.311Z,2.30
2023-04-29T14:27:08.261Z,2.00
2023-04-29T14:29:35.033Z,1.63
2023-04-29T14:32:01.832Z,2.40
2023-04-29T14:34:28.588Z,2.17
2023-04-29T14:36:55.351Z,2.33
2023-04-29T14:39:22.558Z,5.22
2023-04-29T14:41:49.362Z,2.47
2023-04-29T14:44:16.495Z,3.05
2023-04-29T14:46:43.385Z,2.67
2023-04-29T14:49:10.415Z,2.33
2023-04-29T14:51:37.151Z,2.97
2023-04-29T14:54:03.976Z,1.75
2023-04-29T14:56:30.890Z,3.20
2023-04-29T14:58:57.584Z,4.35
2023-04-29T15:01:24.402Z,6.07
2023-04-29T15:03:51.283Z,4.80
2023-04-29T15:06:18.342Z,3.20
2023-04-29T15:08:45.140Z,4.05
2023-04-29T15:11:11.944Z,3.83
2023-04-29T15:13:39.072Z,5.35
2023-04-29T15:16:07.423Z,3.95
2023-04-29T15:18:34.296Z,3.95
2023-04-29T15:21:00.988Z,4.20
2023-04-29T15:23:27.890Z,4.40
2023-04-29T15:25:54.654Z,3.83
2023-04-29T15:28:23.039Z,4.23
2023-04-29T15:30:49.990Z,7.38
2023-04-29T15:33:16.755Z,6.60
2023-04-29T15:35:43.715Z,6.20
2023-04-29T15:38:10.473Z,6.18
2023-04-29T15:40:37.187Z,5.30
2023-04-29T15:43:03.912Z,5.65
2023-04-29T15:45:30.917Z,4.28
2023-04-29T15:47:57.737Z,5.38
2023-04-29T15:50:24.508Z,6.40
2023-04-29T15:52:55.709Z,4.25
2023-04-29T15:55:22.454Z,3.30
2023-04-29T15:57:51.374Z,4.35
2023-04-29T16:00:20.604Z,4.05
2023-04-29T16:02:47.513Z,4.53
2023-04-29T16:05:14.486Z,4.18
2023-04-29T16:07:41.374Z,3.95
2023-04-29T16:10:08.416Z,4.05
2023-04-29T16:12:35.399Z,3.55
2023-04-29T16:15:02.612Z,3.30
2023-04-29T16:17:29.641Z,4.60
2023-04-29T16:19:56.750Z,4.50
2023-04-29T16:22:23.552Z,3.22
2023-04-29T16:24:50.798Z,4.40
2023-04-29T16:27:17.670Z,4.15
2023-04-29T16:29:44.691Z,3.00
2023-04-29T16:32:11.532Z,3.05
2023-04-29T16:34:38.306Z,2.42
2023-04-29T16:37:05.091Z,2.78
2023-04-29T16:39:31.888Z,2.20
2023-04-29T16:41:59.560Z,2.38
2023-04-29T16:44:26.475Z,3.05
2023-04-29T16:46:53.405Z,2.72
2023-04-29T16:49:26.553Z,2.25
2023-04-29T16:51:55.226Z,2.05
2023-04-29T16:54:22.909Z,1.73
2023-04-29T16:56:51.039Z,2.20
2023-04-29T16:59:18.233Z,2.40
2023-04-29T17:01:45.346Z,3.10
2023-04-29T17:04:13.060Z,2.90
2023-04-29T17:06:40.716Z,2.90
2023-04-29T17:09:07.992Z,3.22
2023-04-29T17:11:34.782Z,4.47
2023-04-29T17:14:01.603Z,3.25
2023-04-29T17:16:29.927Z,3.75
2023-04-29T17:18:57.026Z,3.50
2023-04-29T17:21:25.724Z,3.15
2023-04-29T17:23:53.286Z,5.20
2023-04-29T17:26:21.154Z,3.65
2023-04-29T17:28:48.026Z,3.10
2023-04-29T17:31:15.526Z,4.00
2023-04-29T17:33:54.519Z,3.40
2023-04-29T17:36:24.589Z,3.65
2023-04-29T17:38:51.323Z,3.20
2023-04-29T17:41:18.059Z,3.60
2023-04-29T17:43:44.770Z,2.97
2023-04-29T17:46:11.576Z,4.97
2023-04-29T17:48:38.341Z,3.08
2023-04-29T17:51:05.295Z,3.30
2023-04-29T17:53:33.111Z,3.00
2023-04-29T17:55:59.896Z,3.08
2023-04-29T17:58:28.869Z,3.70
2023-04-29T18:00:56.601Z,3.00
2023-04-29T18:03:23.799Z,4.00
2023-04-29T18:05:50.626Z,3.58
2023-04-29T18:08:17.534Z,6.00
2023-04-29T18:10:44.283Z,4.20
2023-04-29T18:13:11.011Z,5.05
2023-04-29T18:15:37.913Z,3.50
2023-04-29T18:18:05.014Z,3.67
2023-04-29T18:20:31.832Z,3.97
2023-04-29T18:22:58.571Z,3.67
2023-04-29T18:25:25.390Z,4.57
2023-04-29T18:27:56.975Z,3.97
2023-04-29T18:32:54.058Z,5.35
2023-04-29T18:35:20.950Z,5.30
2023-04-29T18:37:47.688Z,4.53
2023-04-29T18:40:14.504Z,4.10
2023-04-29T18:42:41.314Z,3.35
2023-04-29T18:45:08.770Z,4.53
2023-04-29T18:47:35.714Z,3.70
2023-04-29T18:50:03.670Z,3.70
2023-04-29T18:52:30.708Z,3.60
2023-04-29T18:54:57.458Z,4.07
2023-04-29T18:57:24.183Z,4.20
2023-04-29T18:59:51.813Z,4.05
2023-04-29T19:02:18.795Z,5.32
2023-04-29T19:04:45.769Z,3.63
2023-04-29T19:07:12.557Z,3.40
2023-04-29T19:09:39.382Z,3.80
2023-04-29T19:12:07.489Z,3.60
2023-04-29T19:14:34.425Z,5.38
2023-04-29T19:17:01.320Z,3.28
2023-04-29T19:19:28.089Z,3.25
2023-04-29T19:21:55.599Z,3.97
2023-04-29T19:24:22.524Z,3.35
2023-04-29T19:26:49.307Z,3.47
2023-04-29T19:29:16.455Z,3.30
2023-04-29T19:31:43.987Z,2.95
2023-04-29T19:34:12.155Z,3.40
2023-04-29T19:36:39.164Z,3.20
2023-04-29T19:39:06.035Z,3.63
2023-04-29T19:41:34.928Z,3.22
2023-04-29T19:44:02.073Z,3.53
2023-04-29T19:46:28.852Z,3.25
2023-04-29T19:48:55.652Z,4.10
2023-04-29T19:51:22.416Z,3.67
2023-04-29T19:53:49.770Z,4.90
2023-04-29T19:56:16.535Z,4.03
2023-04-29T19:58:43.254Z,5.28
2023-04-29T20:01:10.055Z,4.30
2023-04-29T20:03:39.290Z,4.30
2023-04-29T20:06:07.284Z,3.83
2023-04-29T20:08:34.119Z,4.00
2023-04-29T20:11:02.481Z,3.60
2023-04-29T20:13:29.309Z,3.70
2023-04-29T20:15:56.220Z,3.80
2023-04-29T20:18:23.089Z,3.78
2023-04-29T20:20:50.493Z,3.70
2023-04-29T20:23:17.557Z,3.72
2023-04-29T20:25:44.361Z,3.90
2023-04-29T20:28:11.154Z,3.40
2023-04-29T20:30:38.098Z,3.47
2023-04-29T20:33:06.876Z,3.25
2023-04-29T20:35:34.453Z,3.38
2023-04-29T20:38:01.382Z,4.13
2023-04-29T20:40:28.216Z,3.03
2023-04-29T20:42:54.984Z,3.00
2023-04-29T20:45:23.258Z,3.70
2023-04-29T20:47:50.475Z,3.33
2023-04-29T20:50:17.218Z,3.05
2023-04-29T20:52:44.400Z,3.15
2023-04-29T20:55:11.153Z,2.90
2023-04-29T20:57:37.926Z,3.13
2023-04-29T21:00:05.600Z,2.90
2023-04-29T21:02:32.388Z,3.13
2023-04-29T21:04:59.882Z,3.50
2023-04-29T21:07:26.806Z,3.83
2023-04-29T21:09:54.218Z,3.60
2023-04-29T21:12:21.338Z,4.28
2023-04-29T21:14:48.153Z,4.40
2023-04-29T21:17:14.970Z,5.60
2023-04-29T21:19:42.011Z,4.60
2023-04-29T21:22:08.845Z,4.15
2023-04-29T21:24:35.596Z,5.78
2023-04-29T21:27:02.786Z,5.07
2023-04-29T21:29:29.529Z,4.90
2023-04-29T21:31:56.315Z,5.43
2023-04-29T21:34:23.169Z,5.30
2023-04-29T21:36:49.890Z,4.10
2023-04-29T21:39:16.753Z,4.75
2023-04-29T21:41:43.678Z,4.60
2023-04-29T21:44:11.720Z,5.57
2023-04-29T21:46:38.593Z,4.80
2023-04-29T21:49:05.652Z,4.20
2023-04-29T21:51:34.063Z,4.50
2023-04-29T21:54:01.052Z,4.53
2023-04-29T21:56:27.799Z,4.22
2023-04-29T21:58:54.585Z,4.75
2023-04-29T22:01:39.735Z,3.75
2023-04-29T22:04:08.097Z,3.70
2023-04-29T22:06:35.221Z,3.50
2023-04-29T22:09:02.755Z,3.22
2023-04-29T22:11:29.525Z,3.30
2023-04-29T22:13:56.278Z,3.58
2023-04-29T22:16:25.801Z,3.40
2023-04-29T22:18:52.781Z,3.92
2023-04-29T22:21:19.755Z,3.55
2023-04-29T22:23:47.041Z,3.20
2023-04-29T22:26:13.775Z,3.90
2023-04-29T22:28:40.630Z,4.25
2023-04-29T22:31:07.433Z,3.50
2023-04-29T22:33:34.890Z,3.35
2023-04-29T22:36:02.297Z,4.60
2023-04-29T22:38:29.487Z,4.05
2023-04-29T22:40:56.331Z,4.22
2023-04-29T22:43:23.146Z,3.63
2023-04-29T22:45:53.718Z,3.50
2023-04-29T22:48:20.663Z,3.65
2023-04-29T22:50:59.216Z,3.53
2023-04-29T22:53:26.016Z,3.47
2023-04-29T22:55:54.305Z,3.60
2023-04-29T22:58:21.798Z,3.70
2023-04-29T23:00:54.236Z,3.25
2023-04-29T23:03:21.268Z,3.33
2023-04-29T23:05:48.594Z,3.63
2023-04-29T23:08:15.676Z,3.22
2023-04-29T23:10:48.420Z,3.70
2023-04-29T23:13:15.788Z,3.00
2023-04-29T23:15:42.734Z,3.30
2023-04-29T23:18:09.578Z,3.50
2023-04-29T23:20:36.546Z,4.85
2023-04-29T23:23:03.651Z,4.32
2023-04-29T23:25:30.627Z,4.13
2023-04-29T23:27:57.360Z,3.45
2023-04-29T23:30:24.123Z,3.22
2023-04-29T23:32:51.056Z,3.30
2023-04-29T23:35:17.842Z,3.25
2023-04-29T23:37:44.573Z,3.70
2023-04-29T23:40:11.435Z,3.97
2023-04-29T23:42:38.158Z,3.70
2023-04-29T23:45:06.359Z,3.38
2023-04-29T23:47:33.128Z,3.20
2023-04-29T23:49:59.911Z,4.60
2023-04-29T23:52:26.872Z,4.63
2023-04-29T23:54:53.681Z,4.03
2023-04-29T23:57:20.666Z,4.22
2023-04-29T23:59:47.415Z,3.63
